Time;durP1;ratioP1;P1;durP2;ratioP2;P2;SDS_P1;SDS_P2;PMS_P1;PMS_P2;Temp;Humidity;BMP_temperature;BMP_pressure;BME280_temperature;BME280_humidity;BME280_pressure;Samples;Min_cycle;Max_cycle;Signal;HPM_P1;HPM_P2
2022/03/15 00:02:05;;;;;;;34.75;20.63;;;7.50;99.90;;;;;;5057158;28;20082;-71
2022/03/15 00:04:31;;;;;;;36.28;20.50;;;7.50;99.90;;;;;;5060868;28;20079;-71
2022/03/15 00:06:59;;;;;;;38.92;21.92;;;7.40;99.90;;;;;;5061002;28;20016;-71
2022/03/15 00:09:25;;;;;;;34.67;20.23;;;7.40;99.90;;;;;;5078461;28;20020;-71
2022/03/15 00:11:52;;;;;;;30.98;18.52;;;7.40;99.90;;;;;;5059942;28;20035;-71
2022/03/15 00:14:18;;;;;;;36.65;21.25;;;7.40;99.90;;;;;;5075013;28;20040;-71
2022/03/15 00:16:44;;;;;;;33.63;19.20;;;7.50;99.90;;;;;;5058222;28;20107;-72
2022/03/15 00:19:10;;;;;;;37.28;21.52;;;7.50;99.90;;;;;;5076530;28;20561;-71
2022/03/15 00:21:37;;;;;;;35.65;20.35;;;7.40;99.90;;;;;;5076502;28;20457;-71
2022/03/15 00:24:05;;;;;;;35.50;19.90;;;7.50;99.90;;;;;;5056991;28;20024;-71
2022/03/15 00:26:32;;;;;;;40.35;20.80;;;7.40;99.90;;;;;;5056618;28;20497;-71
2022/03/15 00:28:58;;;;;;;39.00;21.10;;;7.40;99.90;;;;;;5059451;28;20035;-72
2022/03/15 00:31:23;;;;;;;39.17;21.17;;;7.40;99.90;;;;;;5057885;28;20018;-71
2022/03/15 00:33:49;;;;;;;36.42;21.20;;;7.40;99.90;;;;;;5075447;28;20021;-72
2022/03/15 00:36:15;;;;;;;35.67;20.45;;;7.40;99.90;;;;;;5058333;28;20389;-71
2022/03/15 00:38:41;;;;;;;40.85;21.33;;;7.40;99.90;;;;;;5057955;28;20099;-71
2022/03/15 00:41:08;;;;;;;40.10;20.48;;;7.30;99.90;;;;;;5056911;28;20514;-71
2022/03/15 00:43:34;;;;;;;32.33;18.42;;;7.30;99.90;;;;;;5042436;28;20047;-72
2022/03/15 00:46:00;;;;;;;32.22;19.67;;;7.30;99.90;;;;;;5056932;28;20050;-71
2022/03/15 00:48:26;;;;;;;37.03;20.92;;;7.30;99.90;;;;;;5054641;28;20450;-71
2022/03/15 00:50:52;;;;;;;35.05;19.83;;;7.30;99.90;;;;;;5075213;28;20618;-72
2022/03/15 00:53:18;;;;;;;37.38;20.35;;;7.30;99.90;;;;;;5059760;28;20079;-71
2022/03/15 00:55:44;;;;;;;44.67;20.10;;;7.30;99.90;;;;;;5057289;28;20481;-72
2022/03/15 00:58:10;;;;;;;74.97;23.00;;;7.20;99.90;;;;;;5040135;28;20033;-71
2022/03/15 01:00:36;;;;;;;36.22;21.73;;;7.20;99.90;;;;;;5075684;28;20036;-71
2022/03/15 01:03:05;;;;;;;53.95;24.75;;;7.10;99.90;;;;;;5076137;28;20107;-71
2022/03/15 01:05:32;;;;;;;51.38;22.13;;;7.10;99.90;;;;;;5072031;28;20549;-71
2022/03/15 01:07:57;;;;;;;38.25;22.45;;;7.20;99.90;;;;;;5079637;28;20433;-71
2022/03/15 01:10:23;;;;;;;38.92;22.95;;;7.10;99.90;;;;;;5079348;28;20043;-72
2022/03/15 01:12:49;;;;;;;58.28;23.88;;;7.10;99.90;;;;;;5062343;28;20375;-72
2022/03/15 01:15:15;;;;;;;50.78;23.58;;;7.00;99.90;;;;;;5061560;28;20024;-72
2022/03/15 01:17:41;;;;;;;42.72;22.85;;;7.00;99.90;;;;;;5079277;28;20395;-72
2022/03/15 01:20:08;;;;;;;50.53;24.83;;;7.00;99.90;;;;;;5061792;28;20021;-72
2022/03/15 01:22:34;;;;;;;44.85;24.15;;;7.00;99.90;;;;;;5059244;28;20028;-72
2022/03/15 01:24:59;;;;;;;44.22;24.33;;;7.00;99.90;;;;;;5062179;28;20435;-72
2022/03/15 01:27:25;;;;;;;49.42;25.33;;;7.00;99.90;;;;;;5079774;28;20032;-72
2022/03/15 01:29:54;;;;;;;51.35;24.85;;;7.00;99.90;;;;;;5079448;28;20382;-72
2022/03/15 01:32:22;;;;;;;57.45;26.40;;;7.00;99.90;;;;;;5062872;28;20013;-72
2022/03/15 01:34:47;;;;;;;48.20;24.10;;;7.00;99.90;;;;;;5061302;28;20063;-72
2022/03/15 01:37:13;;;;;;;56.13;26.10;;;7.00;99.90;;;;;;5081091;28;20029;-72
2022/03/15 01:39:39;;;;;;;55.35;26.27;;;7.00;99.90;;;;;;5059959;28;20063;-72
2022/03/15 01:42:04;;;;;;;52.00;25.30;;;7.10;99.90;;;;;;5059927;28;20103;-72
2022/03/15 01:44:33;;;;;;;56.75;25.95;;;7.10;99.90;;;;;;5059742;28;20025;-72
2022/03/15 01:46:59;;;;;;;53.95;26.13;;;7.10;99.90;;;;;;5043673;28;20389;-72
2022/03/15 01:49:25;;;;;;;63.92;27.35;;;7.10;99.90;;;;;;5078531;28;20052;-73
2022/03/15 01:51:50;;;;;;;54.47;26.65;;;7.10;99.90;;;;;;5061333;28;20060;-72
2022/03/15 01:54:17;;;;;;;62.35;28.25;;;7.10;99.90;;;;;;5078697;28;20029;-72
2022/03/15 01:56:43;;;;;;;63.67;28.23;;;7.10;99.90;;;;;;5058870;28;20028;-72
2022/03/15 01:59:14;;;;;;;63.05;28.02;;;7.00;99.90;;;;;;5060985;28;20028;-72
2022/03/15 02:01:41;;;;;;;60.72;26.02;;;7.10;99.90;;;;;;5064409;28;20275;-72
2022/03/15 02:04:08;;;;;;;63.60;26.88;;;7.10;99.90;;;;;;5078355;28;20017;-72
2022/03/15 02:06:36;;;;;;;64.40;27.98;;;7.10;99.90;;;;;;5059804;28;20386;-72
2022/03/15 02:09:13;;;;;;;62.30;27.25;;;7.10;99.90;;;;;;5077928;28;20029;-72
2022/03/15 02:11:39;;;;;;;65.38;27.35;;;7.10;99.90;;;;;;5077800;28;20535;-72
2022/03/15 02:14:05;;;;;;;61.42;28.05;;;7.10;99.90;;;;;;5077791;28;20056;-72
2022/03/15 02:16:33;;;;;;;63.33;25.63;;;7.00;99.90;;;;;;5060922;28;20035;-72
2022/03/15 02:19:00;;;;;;;53.13;24.70;;;6.90;99.90;;;;;;5043684;28;20417;-72
2022/03/15 02:21:27;;;;;;;50.40;24.15;;;7.00;99.90;;;;;;5077734;28;20067;-72
2022/03/15 02:23:52;;;;;;;50.90;24.98;;;7.00;99.90;;;;;;5059312;28;20485;-72
2022/03/15 02:26:18;;;;;;;49.15;24.40;;;6.90;99.90;;;;;;5077578;28;20093;-72
2022/03/15 02:28:44;;;;;;;55.58;25.55;;;6.90;99.90;;;;;;5075219;28;20026;-72
2022/03/15 02:31:10;;;;;;;58.97;26.20;;;6.80;99.90;;;;;;5060385;28;20028;-72
2022/03/15 02:33:36;;;;;;;58.92;26.80;;;6.80;99.90;;;;;;5077682;28;20027;-72
2022/03/15 02:36:02;;;;;;;58.08;25.88;;;6.70;99.90;;;;;;5074640;28;20036;-72
2022/03/15 02:38:27;;;;;;;50.15;23.92;;;6.70;99.90;;;;;;5077882;28;20582;-72
2022/03/15 02:40:54;;;;;;;47.85;23.23;;;6.70;99.90;;;;;;5078505;28;20025;-72
2022/03/15 02:43:21;;;;;;;47.42;24.20;;;6.70;99.90;;;;;;5041119;28;20021;-72
2022/03/15 02:45:47;;;;;;;49.15;22.75;;;6.60;99.90;;;;;;5076023;28;20528;-72
2022/03/15 02:48:13;;;;;;;47.50;21.55;;;6.60;99.90;;;;;;5060102;28;20378;-72
2022/03/15 02:50:39;;;;;;;45.10;22.27;;;6.60;99.90;;;;;;5059357;28;20029;-73
2022/03/15 02:53:05;;;;;;;42.63;19.73;;;6.60;99.90;;;;;;5077466;28;20416;-72
2022/03/15 02:55:32;;;;;;;38.58;19.08;;;6.60;99.90;;;;;;5076628;28;20135;-72
2022/03/15 02:57:58;;;;;;;38.20;19.90;;;6.70;99.90;;;;;;5076839;28;20028;-72
2022/03/15 03:00:27;;;;;;;39.05;21.33;;;6.60;99.90;;;;;;5058540;28;20039;-72
2022/03/15 03:02:53;;;;;;;35.95;20.38;;;6.60;99.90;;;;;;5041813;28;20025;-72
2022/03/15 03:05:20;;;;;;;44.03;22.52;;;6.50;99.90;;;;;;5058200;28;20055;-72
2022/03/15 03:07:46;;;;;;;32.80;19.33;;;6.40;99.90;;;;;;5057431;28;20366;-72
2022/03/15 03:10:12;;;;;;;31.95;18.73;;;6.40;99.90;;;;;;5059683;28;20027;-72
2022/03/15 03:12:41;;;;;;;35.28;18.85;;;6.30;99.90;;;;;;5076515;28;20021;-73
2022/03/15 03:15:12;;;;;;;32.53;18.38;;;6.30;99.90;;;;;;5077594;28;20323;-71
2022/03/15 03:17:41;;;;;;;32.80;18.77;;;6.30;99.90;;;;;;5040716;28;20028;-72
2022/03/15 03:20:13;;;;;;;34.95;19.92;;;6.30;99.90;;;;;;5058567;28;20042;-72
2022/03/15 03:22:41;;;;;;;38.25;21.35;;;6.30;99.90;;;;;;5056812;28;20032;-72
2022/03/15 03:25:08;;;;;;;39.47;20.15;;;6.20;99.90;;;;;;5040514;28;20035;-71
2022/03/15 03:27:34;;;;;;;36.10;21.55;;;6.20;99.90;;;;;;5076759;28;20012;-71
2022/03/15 03:30:02;;;;;;;34.42;19.70;;;6.20;99.90;;;;;;5074884;28;20470;-71
2022/03/15 03:32:28;;;;;;;34.72;19.80;;;6.20;99.90;;;;;;5074628;28;20020;-71
2022/03/15 03:34:55;;;;;;;36.60;19.75;;;6.20;99.90;;;;;;5056906;28;20032;-71
2022/03/15 03:37:22;;;;;;;33.97;19.13;;;6.10;99.90;;;;;;5054818;28;20060;-71
2022/03/15 03:39:48;;;;;;;30.77;18.33;;;6.10;99.90;;;;;;5059210;28;20039;-71
2022/03/15 03:42:14;;;;;;;37.13;20.52;;;6.10;99.90;;;;;;5076701;28;20024;-73
2022/03/15 03:44:43;;;;;;;37.63;19.85;;;6.00;99.90;;;;;;5075882;28;20024;-71
2022/03/15 03:47:10;;;;;;;34.35;18.40;;;6.00;99.90;;;;;;5073277;28;20100;-71
2022/03/15 03:49:36;;;;;;;34.13;19.33;;;6.10;99.90;;;;;;5069539;28;20025;-71
2022/03/15 03:52:02;;;;;;;33.92;19.60;;;6.10;99.90;;;;;;5077447;28;20583;-71
2022/03/15 03:54:28;;;;;;;36.55;19.83;;;6.10;99.90;;;;;;5058071;28;20024;-71
2022/03/15 03:56:53;;;;;;;36.30;18.55;;;6.10;99.90;;;;;;5058095;28;20020;-71
2022/03/15 03:59:19;;;;;;;29.98;18.02;;;6.10;99.90;;;;;;5089953;23;20036;-69
2022/03/15 04:01:45;;;;;;;48.45;19.77;;;6.20;99.90;;;;;;5058603;28;20032;-68
2022/03/15 04:04:11;;;;;;;40.88;20.95;;;6.10;99.90;;;;;;5013555;28;20040;-69
2022/03/15 04:06:39;;;;;;;36.08;19.95;;;6.10;99.90;;;;;;5060385;28;20021;-70
2022/03/15 04:09:06;;;;;;;42.08;21.55;;;6.10;99.90;;;;;;5033249;28;20544;-69
2022/03/15 04:11:32;;;;;;;39.58;21.42;;;6.10;99.90;;;;;;5048151;28;20033;-70
2022/03/15 04:13:59;;;;;;;38.65;19.90;;;6.10;99.90;;;;;;5042291;28;20025;-69
2022/03/15 04:16:26;;;;;;;43.00;20.80;;;6.00;99.90;;;;;;5048807;28;20032;-69
2022/03/15 04:18:52;;;;;;;34.15;19.67;;;6.00;99.90;;;;;;5047539;28;20033;-69
2022/03/15 04:21:18;;;;;;;34.70;19.80;;;6.00;99.90;;;;;;5046607;28;20025;-69
2022/03/15 04:23:45;;;;;;;40.53;21.52;;;6.00;99.90;;;;;;5049914;28;20025;-69
2022/03/15 04:26:11;;;;;;;43.35;22.48;;;6.00;99.90;;;;;;5047866;28;20032;-69
2022/03/15 04:28:37;;;;;;;41.60;21.85;;;6.00;99.90;;;;;;5042770;28;20033;-69
2022/03/15 04:31:03;;;;;;;35.60;20.98;;;6.00;99.90;;;;;;5040405;28;20064;-70
2022/03/15 04:33:28;;;;;;;40.80;20.58;;;6.10;99.90;;;;;;5049545;28;20025;-69
2022/03/15 04:35:54;;;;;;;49.70;22.15;;;6.10;99.90;;;;;;5049326;28;20405;-69
2022/03/15 04:38:20;;;;;;;58.50;24.50;;;6.10;99.90;;;;;;5020950;28;20471;-70
2022/03/15 04:40:46;;;;;;;73.30;29.85;;;6.10;99.90;;;;;;5009209;28;20474;-70
2022/03/15 04:43:12;;;;;;;85.82;32.42;;;6.10;99.90;;;;;;5021575;28;20381;-69
2022/03/15 04:45:38;;;;;;;90.72;29.75;;;6.00;99.90;;;;;;5040754;28;20354;-70
2022/03/15 04:48:05;;;;;;;93.03;33.03;;;5.90;99.90;;;;;;5040210;28;20075;-70
2022/03/15 04:50:30;;;;;;;90.32;34.67;;;5.90;99.90;;;;;;5048227;28;20069;-69
2022/03/15 04:52:56;;;;;;;81.60;29.63;;;5.90;99.90;;;;;;5048861;28;20566;-70
2022/03/15 04:55:22;;;;;;;88.05;32.38;;;6.00;99.90;;;;;;5043873;28;20048;-69
2022/03/15 04:57:47;;;;;;;81.00;31.05;;;6.10;99.90;;;;;;5047281;28;20441;-70
2022/03/15 05:00:14;;;;;;;86.40;33.28;;;6.10;99.90;;;;;;5049154;28;20041;-69
2022/03/15 05:02:41;;;;;;;90.32;34.28;;;5.90;99.90;;;;;;5042890;28;20112;-70
2022/03/15 05:05:08;;;;;;;103.55;34.15;;;5.80;99.90;;;;;;5025808;28;20033;-70
2022/03/15 05:07:34;;;;;;;100.82;34.13;;;5.70;99.90;;;;;;5022789;28;20083;-70
2022/03/15 05:12:45;;;;;;;100.93;35.58;;;5.60;99.90;;;;;;5041853;28;20475;-69
2022/03/15 05:15:11;;;;;;;96.00;33.97;;;5.70;99.90;;;;;;5050384;28;20064;-70
2022/03/15 05:17:37;;;;;;;102.68;36.38;;;5.70;99.90;;;;;;5036156;28;20029;-70
2022/03/15 05:20:05;;;;;;;102.10;35.70;;;5.90;99.90;;;;;;5024693;28;20509;-69
2022/03/15 05:22:34;;;;;;;105.38;34.38;;;5.90;99.90;;;;;;5022591;28;20053;-69
2022/03/15 05:25:00;;;;;;;105.80;35.03;;;5.90;99.90;;;;;;5047375;28;20025;-69
2022/03/15 05:27:31;;;;;;;102.28;35.00;;;5.90;99.90;;;;;;5045909;28;20098;-69
2022/03/15 05:29:57;;;;;;;103.97;35.67;;;5.90;99.90;;;;;;5043258;28;20021;-69
2022/03/15 05:32:24;;;;;;;93.15;33.58;;;5.90;99.90;;;;;;5027098;28;20029;-68
2022/03/15 05:34:49;;;;;;;89.03;33.80;;;5.90;99.90;;;;;;5042014;28;20288;-69
2022/03/15 05:37:15;;;;;;;88.45;33.60;;;5.90;99.90;;;;;;5027822;28;20044;-69
2022/03/15 05:39:41;;;;;;;89.75;34.03;;;5.90;99.90;;;;;;5041167;28;20415;-69
2022/03/15 05:42:07;;;;;;;87.85;33.58;;;5.90;99.90;;;;;;5063508;28;20058;-69
2022/03/15 05:44:33;;;;;;;104.35;36.63;;;5.90;99.90;;;;;;5044267;28;20116;-69
2022/03/15 05:46:58;;;;;;;99.78;35.72;;;5.90;99.90;;;;;;5042871;28;20026;-69
2022/03/15 05:49:24;;;;;;;95.15;33.28;;;5.90;99.90;;;;;;5028639;28;20028;-69
2022/03/15 05:51:50;;;;;;;88.85;33.90;;;6.00;99.90;;;;;;5044090;28;20033;-69
2022/03/15 05:54:15;;;;;;;84.25;31.58;;;6.00;99.90;;;;;;5031661;28;20029;-69
2022/03/15 05:56:41;;;;;;;88.38;34.28;;;6.00;99.90;;;;;;5049101;28;20453;-70
2022/03/15 05:59:08;;;;;;;98.75;33.72;;;6.00;99.90;;;;;;5013550;28;20025;-69
2022/03/15 06:01:34;;;;;;;79.70;32.75;;;6.10;99.90;;;;;;5024918;28;20482;-70
2022/03/15 06:03:59;;;;;;;93.68;33.25;;;6.00;99.90;;;;;;5028767;28;20099;-69
2022/03/15 06:06:25;;;;;;;81.57;31.92;;;6.00;99.90;;;;;;5051860;28;20456;-69
2022/03/15 06:08:51;;;;;;;81.40;31.90;;;6.00;99.90;;;;;;5033017;28;20017;-70
2022/03/15 06:11:19;;;;;;;78.32;31.33;;;5.90;99.90;;;;;;5052655;28;20100;-70
2022/03/15 06:13:45;;;;;;;85.38;31.17;;;5.90;99.90;;;;;;5047406;28;20488;-69
2022/03/15 06:16:11;;;;;;;81.80;31.25;;;5.90;99.90;;;;;;5028519;28;20028;-69
2022/03/15 06:18:38;;;;;;;81.80;32.08;;;5.80;99.90;;;;;;5050126;28;20103;-70
2022/03/15 06:21:04;;;;;;;86.80;30.83;;;5.80;99.90;;;;;;5029222;28;20045;-70
2022/03/15 06:23:30;;;;;;;80.45;31.20;;;5.80;99.90;;;;;;5029614;28;20025;-69
2022/03/15 06:25:56;;;;;;;72.07;30.48;;;5.80;99.90;;;;;;5052797;28;20397;-70
2022/03/15 06:28:22;;;;;;;80.85;29.83;;;5.80;99.90;;;;;;5052808;28;20033;-71
2022/03/15 06:30:48;;;;;;;79.05;28.23;;;5.90;99.90;;;;;;5048029;28;20033;-70
2022/03/15 06:33:13;;;;;;;74.55;28.58;;;5.90;99.90;;;;;;5027097;28;20022;-70
2022/03/15 06:35:41;;;;;;;73.43;30.20;;;5.90;99.90;;;;;;5045731;28;20116;-71
2022/03/15 06:38:08;;;;;;;63.97;28.70;;;6.00;99.90;;;;;;5050208;28;20527;-70
2022/03/15 06:40:35;;;;;;;67.38;26.98;;;6.00;99.90;;;;;;5047356;28;20055;-70
2022/03/15 06:43:02;;;;;;;68.35;27.83;;;5.90;99.90;;;;;;5042677;28;20021;-70
2022/03/15 06:45:28;;;;;;;63.63;25.42;;;5.90;99.90;;;;;;5026424;28;20037;-70
2022/03/15 06:47:54;;;;;;;63.08;26.38;;;6.00;99.90;;;;;;5044678;28;20040;-70
2022/03/15 06:50:20;;;;;;;56.97;24.77;;;5.90;99.90;;;;;;5047103;28;20087;-70
2022/03/15 06:52:47;;;;;;;55.85;26.10;;;5.90;99.90;;;;;;5025734;28;20176;-70
2022/03/15 06:55:13;;;;;;;69.90;26.65;;;5.90;99.90;;;;;;5048962;28;20382;-70
2022/03/15 06:57:40;;;;;;;66.50;25.77;;;6.00;99.90;;;;;;5051341;28;20029;-70
2022/03/15 07:00:09;;;;;;;61.00;26.50;;;6.00;99.90;;;;;;5026803;28;20056;-70
2022/03/15 07:02:35;;;;;;;64.80;26.70;;;6.00;99.90;;;;;;5041629;28;20036;-71
2022/03/15 07:05:01;;;;;;;63.72;27.25;;;6.00;99.90;;;;;;5027458;28;20238;-71
2022/03/15 07:07:27;;;;;;;71.00;28.05;;;6.00;99.90;;;;;;5047262;28;20029;-70
2022/03/15 07:09:55;;;;;;;64.47;26.33;;;6.10;99.90;;;;;;5026910;28;20026;-70
2022/03/15 07:12:22;;;;;;;58.50;26.40;;;6.10;99.90;;;;;;5025867;28;20026;-70
2022/03/15 07:14:49;;;;;;;70.15;28.15;;;6.20;99.90;;;;;;5047251;28;20494;-71
2022/03/15 07:17:15;;;;;;;61.55;27.05;;;6.20;99.90;;;;;;5018911;28;20399;-71
2022/03/15 07:19:42;;;;;;;70.00;27.73;;;6.20;99.90;;;;;;5022340;28;20021;-70
2022/03/15 07:22:09;;;;;;;63.30;28.65;;;6.30;99.90;;;;;;5024722;28;20534;-70
2022/03/15 07:24:35;;;;;;;71.00;32.05;;;6.30;99.90;;;;;;5044045;28;20067;-70
2022/03/15 07:27:02;;;;;;;75.10;31.48;;;6.30;99.90;;;;;;5041004;28;20021;-70
2022/03/15 07:29:28;;;;;;;77.35;30.42;;;6.30;99.90;;;;;;5042525;28;20024;-70
2022/03/15 07:31:56;;;;;;;75.85;31.02;;;6.30;99.90;;;;;;5023783;28;20044;-70
2022/03/15 07:34:22;;;;;;;75.15;30.42;;;6.30;99.90;;;;;;5024786;28;20110;-70
2022/03/15 07:36:48;;;;;;;74.95;30.05;;;6.40;99.90;;;;;;5047503;28;20029;-70
2022/03/15 07:39:17;;;;;;;74.90;32.45;;;6.40;99.90;;;;;;5006232;28;20056;-70
2022/03/15 07:41:43;;;;;;;80.32;31.63;;;6.50;99.90;;;;;;5044385;28;20063;-70
2022/03/15 07:44:10;;;;;;;82.30;32.00;;;6.50;99.90;;;;;;5030579;28;20060;-70
2022/03/15 07:46:37;;;;;;;73.22;30.17;;;6.50;99.90;;;;;;5045054;28;20510;-70
2022/03/15 07:49:04;;;;;;;68.93;30.05;;;6.50;99.90;;;;;;5004764;28;20053;-70
2022/03/15 07:51:30;;;;;;;73.05;31.55;;;6.60;99.90;;;;;;5047316;28;20460;-70
2022/03/15 07:53:56;;;;;;;68.10;30.48;;;6.60;99.90;;;;;;5041083;28;20096;-70
2022/03/15 07:56:25;;;;;;;70.78;31.25;;;6.60;99.90;;;;;;5025658;28;20032;-70
2022/03/15 07:58:51;;;;;;;63.40;29.20;;;6.60;99.90;;;;;;5011979;28;1020739;-71
2022/03/15 08:01:18;;;;;;;70.13;29.25;;;6.60;99.90;;;;;;5043947;28;20653;-71
2022/03/15 08:03:44;;;;;;;71.55;30.20;;;6.60;99.90;;;;;;5064175;28;20021;-70
2022/03/15 08:06:10;;;;;;;72.18;30.98;;;6.60;99.90;;;;;;5024003;28;20402;-70
2022/03/15 08:08:35;;;;;;;65.68;30.25;;;6.60;99.90;;;;;;5044561;28;20024;-70
2022/03/15 08:11:06;;;;;;;73.28;29.27;;;6.70;99.90;;;;;;5047788;28;20032;-70
2022/03/15 08:13:34;;;;;;;66.53;31.15;;;6.70;99.90;;;;;;5009226;28;20031;-70
2022/03/15 08:16:01;;;;;;;65.78;30.23;;;6.70;99.90;;;;;;5048248;28;20125;-70
2022/03/15 08:18:27;;;;;;;64.07;29.02;;;6.80;99.90;;;;;;5049333;28;20442;-70
2022/03/15 08:20:53;;;;;;;66.55;30.52;;;6.90;99.90;;;;;;5025101;28;20041;-70
2022/03/15 08:23:23;;;;;;;72.63;30.27;;;7.00;99.90;;;;;;5049184;28;20021;-69
2022/03/15 08:25:50;;;;;;;68.65;30.40;;;7.00;99.90;;;;;;5026230;28;20482;-69
2022/03/15 08:28:16;;;;;;;66.43;29.77;;;7.10;99.90;;;;;;5023278;28;20113;-69
2022/03/15 08:30:41;;;;;;;63.63;28.30;;;7.20;99.90;;;;;;5023586;28;20033;-69
2022/03/15 08:33:07;;;;;;;66.63;30.95;;;7.20;99.90;;;;;;5028169;28;20034;-69
2022/03/15 08:35:33;;;;;;;74.72;32.45;;;7.30;99.90;;;;;;5044730;28;20098;-70
2022/03/15 08:37:58;;;;;;;76.65;31.92;;;7.40;99.90;;;;;;5028911;28;20029;-69
2022/03/15 08:40:24;;;;;;;70.40;30.92;;;7.50;99.90;;;;;;5019565;28;20525;-69
2022/03/15 08:42:50;;;;;;;72.35;31.08;;;7.50;99.90;;;;;;5045510;28;20548;-69
2022/03/15 08:45:15;;;;;;;71.30;33.28;;;7.60;99.90;;;;;;5042449;28;20029;-69
2022/03/15 08:47:41;;;;;;;80.80;34.50;;;7.70;99.90;;;;;;5022918;28;20033;-69
2022/03/15 08:50:09;;;;;;;80.68;33.97;;;7.70;99.90;;;;;;5045019;28;20032;-70
2022/03/15 08:52:35;;;;;;;80.88;35.95;;;7.80;99.90;;;;;;5023772;28;20025;-70
2022/03/15 08:55:02;;;;;;;75.50;33.22;;;7.90;99.90;;;;;;5048997;28;20017;-70
2022/03/15 08:57:31;;;;;;;79.50;33.55;;;7.90;99.90;;;;;;5048322;28;20039;-69
2022/03/15 08:59:58;;;;;;;81.53;36.05;;;7.90;99.90;;;;;;5043287;28;20028;-69
2022/03/15 09:02:24;;;;;;;86.47;37.17;;;8.00;99.90;;;;;;5007656;28;20032;-70
2022/03/15 09:04:58;;;;;;;72.15;32.63;;;8.00;99.90;;;;;;5038790;28;20112;-70
2022/03/15 09:07:24;;;;;;;72.05;32.40;;;8.00;99.90;;;;;;5047478;28;20108;-70
2022/03/15 09:09:49;;;;;;;79.13;32.35;;;8.10;99.90;;;;;;5052979;28;20061;-70
2022/03/15 09:12:16;;;;;;;65.20;30.40;;;8.10;99.90;;;;;;5033771;28;20065;-69
2022/03/15 09:14:42;;;;;;;65.35;30.17;;;8.20;99.90;;;;;;5045342;28;20602;-69
2022/03/15 09:17:07;;;;;;;70.05;32.85;;;8.20;99.90;;;;;;5026655;28;20120;-69
2022/03/15 09:19:33;;;;;;;76.97;32.35;;;8.20;99.90;;;;;;5028029;28;20160;-69
2022/03/15 09:22:03;;;;;;;60.60;29.67;;;8.30;99.90;;;;;;5048562;28;20029;-69
2022/03/15 09:24:32;;;;;;;67.30;31.90;;;8.30;99.90;;;;;;5049170;28;20494;-70
2022/03/15 09:26:58;;;;;;;64.75;30.58;;;8.40;99.90;;;;;;5049861;28;20116;-69
2022/03/15 09:29:24;;;;;;;72.05;33.53;;;8.40;99.90;;;;;;5029637;28;20028;-69
2022/03/15 09:31:50;;;;;;;63.95;31.00;;;8.50;99.90;;;;;;5032942;28;20426;-69
2022/03/15 09:34:17;;;;;;;68.20;31.35;;;8.50;99.90;;;;;;5049719;28;20036;-69
2022/03/15 09:36:46;;;;;;;66.82;32.15;;;8.60;99.90;;;;;;5048889;28;20033;-69
2022/03/15 09:39:13;;;;;;;60.60;30.85;;;8.60;99.90;;;;;;5050424;28;20471;-69
2022/03/15 09:41:40;;;;;;;63.30;30.00;;;8.70;99.90;;;;;;5049330;28;20029;-69
2022/03/15 09:44:10;;;;;;;61.08;31.02;;;8.80;99.90;;;;;;5029371;28;20021;-69
2022/03/15 09:46:42;;;;;;;55.97;28.95;;;8.80;99.90;;;;;;5051395;28;20036;-69
2022/03/15 09:49:07;;;;;;;;;;;8.80;99.90;;;;;;5050510;28;20108;-70
2022/03/15 09:51:35;;;;;;;58.78;29.10;;;8.90;99.90;;;;;;5029611;28;20011;-70
2022/03/15 09:54:04;;;;;;;55.85;28.63;;;8.90;99.90;;;;;;5043852;28;20017;-69
2022/03/15 09:56:38;;;;;;;63.75;30.50;;;9.00;99.90;;;;;;5025831;28;20025;-69
2022/03/15 09:59:16;;;;;;;52.65;28.45;;;9.00;99.90;;;;;;5052247;28;20024;-71
2022/03/15 10:01:45;;;;;;;56.03;29.23;;;9.10;99.90;;;;;;5041114;28;20506;-70
2022/03/15 10:04:11;;;;;;;56.45;28.00;;;9.10;99.90;;;;;;5009399;28;20043;-70
2022/03/15 10:06:38;;;;;;;51.92;28.17;;;9.20;99.90;;;;;;5024709;28;20028;-69
2022/03/15 10:09:08;;;;;;;56.30;26.08;;;9.20;99.90;;;;;;5050756;28;20545;-70
2022/03/15 10:11:34;;;;;;;45.95;23.85;;;9.30;99.90;;;;;;5029694;28;20454;-70
2022/03/15 10:14:00;;;;;;;44.92;23.17;;;9.30;99.90;;;;;;5052192;28;20049;-69
2022/03/15 10:16:40;;;;;;;45.55;22.30;;;9.40;99.90;;;;;;5051804;28;20025;-70
2022/03/15 10:19:10;;;;;;;39.65;21.45;;;9.50;99.90;;;;;;5049152;28;20028;-69
2022/03/15 10:21:38;;;;;;;40.03;21.50;;;9.50;99.90;;;;;;5010790;28;20483;-69
2022/03/15 10:24:07;;;;;;;41.95;21.77;;;9.50;99.90;;;;;;5029238;28;20029;-70
2022/03/15 10:26:39;;;;;;;36.55;21.17;;;9.50;99.90;;;;;;5045992;28;20137;-69
2022/03/15 10:29:07;;;;;;;37.22;20.33;;;9.60;99.90;;;;;;5044607;28;20079;-70
2022/03/15 10:31:34;;;;;;;31.52;18.17;;;9.60;99.90;;;;;;5025594;28;20037;-70
2022/03/15 10:34:03;;;;;;;33.13;18.55;;;9.60;99.90;;;;;;5051082;28;20092;-71
2022/03/15 10:36:37;;;;;;;32.78;18.80;;;9.60;99.90;;;;;;5025203;28;20051;-71
2022/03/15 10:39:03;;;;;;;38.08;19.13;;;9.70;99.90;;;;;;5025092;28;20112;-70
2022/03/15 10:41:29;;;;;;;37.42;18.80;;;9.60;99.90;;;;;;5008626;28;20029;-71
2022/03/15 10:43:57;;;;;;;28.00;17.13;;;9.70;99.90;;;;;;5047302;28;20032;-71
2022/03/15 10:46:25;;;;;;;34.65;18.05;;;9.70;99.90;;;;;;5047483;28;20090;-72
2022/03/15 10:49:03;;;;;;;38.75;19.13;;;9.70;99.90;;;;;;5049720;28;20033;-72
2022/03/15 10:51:29;;;;;;;32.30;18.08;;;9.80;99.90;;;;;;5044095;28;20487;-72
2022/03/15 10:54:03;;;;;;;26.83;16.77;;;9.90;99.90;;;;;;5030517;28;20022;-71
2022/03/15 10:56:30;;;;;;;27.52;15.93;;;9.90;99.90;;;;;;5026863;28;20025;-71
2022/03/15 10:58:59;;;;;;;31.48;15.35;;;10.00;99.90;;;;;;5047142;28;20051;-71
2022/03/15 11:01:26;;;;;;;23.45;14.75;;;10.00;99.90;;;;;;5047191;28;20086;-70
2022/03/15 11:04:00;;;;;;;22.20;13.10;;;10.00;99.90;;;;;;5049111;28;20044;-71
2022/03/15 11:06:43;;;;;;;24.13;14.65;;;10.10;99.90;;;;;;5047409;28;20025;-70
2022/03/15 11:09:18;;;;;;;21.65;12.98;;;10.10;99.90;;;;;;5045225;28;20025;-71
2022/03/15 11:11:47;;;;;;;23.00;12.80;;;10.20;99.90;;;;;;5028739;28;20013;-71
2022/03/15 11:14:13;;;;;;;23.15;14.30;;;10.20;99.90;;;;;;5025887;28;20021;-70
2022/03/15 11:16:42;;;;;;;22.50;13.02;;;10.30;99.90;;;;;;5049117;28;20546;-71
2022/03/15 11:19:11;;;;;;;22.20;12.27;;;10.40;99.90;;;;;;5023900;28;20025;-71
2022/03/15 11:21:38;;;;;;;19.70;11.98;;;10.40;99.90;;;;;;5045452;28;20033;-70
2022/03/15 11:24:07;;;;;;;21.80;12.25;;;10.40;99.90;;;;;;5048532;28;20021;-71
2022/03/15 11:26:33;;;;;;;17.35;12.02;;;10.50;99.90;;;;;;5048830;28;20032;-70
2022/03/15 11:29:02;;;;;;;18.40;11.15;;;10.50;99.90;;;;;;5046732;28;20025;-70
2022/03/15 11:31:32;;;;;;;16.88;11.05;;;10.60;99.90;;;;;;5030633;28;20057;-71
2022/03/15 11:34:00;;;;;;;20.20;12.35;;;10.60;99.90;;;;;;5050761;28;20060;-71
2022/03/15 11:36:26;;;;;;;21.58;11.52;;;10.60;99.90;;;;;;5028965;28;20048;-71
2022/03/15 11:38:53;;;;;;;21.52;11.10;;;10.60;99.90;;;;;;5028981;28;20032;-72
2022/03/15 11:41:21;;;;;;;23.38;13.30;;;10.60;99.90;;;;;;5048366;28;20025;-71
2022/03/15 11:44:07;;;;;;;16.40;11.15;;;10.70;99.90;;;;;;5025480;28;20040;-73
2022/03/15 11:46:43;;;;;;;21.02;12.20;;;10.80;99.90;;;;;;5023359;28;20037;-71
2022/03/15 11:49:32;;;;;;;19.42;11.57;;;10.80;99.90;;;;;;5046557;28;20386;-71
2022/03/15 11:52:22;;;;;;;22.83;11.75;;;10.70;99.90;;;;;;5039281;28;20028;-73
2022/03/15 11:54:57;;;;;;;24.15;12.50;;;10.80;99.90;;;;;;5026807;28;20025;-71
2022/03/15 11:57:38;;;;;;;22.60;11.35;;;10.80;99.90;;;;;;5006666;28;20112;-70
2022/03/15 12:00:05;;;;;;;20.63;12.55;;;10.90;99.90;;;;;;5044050;28;20122;-71
2022/03/15 12:02:38;;;;;;;24.13;12.95;;;11.00;99.90;;;;;;5030134;28;20021;-71
2022/03/15 12:05:17;;;;;;;21.08;12.52;;;11.10;99.90;;;;;;5023066;28;20037;-71
2022/03/15 12:07:47;;;;;;;21.33;12.00;;;11.10;99.90;;;;;;5047657;28;20248;-72
2022/03/15 12:10:24;;;;;;;19.63;11.65;;;11.10;99.90;;;;;;5028833;28;20025;-73
2022/03/15 12:13:02;;;;;;;20.88;11.68;;;11.20;99.90;;;;;;5032081;28;20021;-70
2022/03/15 12:15:36;;;;;;;18.10;11.38;;;11.20;99.90;;;;;;5046279;28;20032;-71
2022/03/15 12:18:18;;;;;;;19.20;11.35;;;11.20;99.90;;;;;;5039053;28;20029;-70
2022/03/15 12:20:46;;;;;;;23.65;11.93;;;11.30;99.90;;;;;;5021831;28;20490;-72
2022/03/15 12:23:22;;;;;;;22.08;11.77;;;11.30;99.90;;;;;;5031289;28;20044;-71
2022/03/15 12:25:53;;;;;;;22.25;10.98;;;11.30;99.90;;;;;;5045816;28;20510;-70
2022/03/15 12:28:39;;;;;;;18.73;10.23;;;11.30;99.90;;;;;;5024532;28;20025;-71
2022/03/15 12:31:07;;;;;;;22.52;10.88;;;11.30;99.90;;;;;;5045910;28;20056;-72
2022/03/15 12:33:34;;;;;;;17.73;10.27;;;11.30;99.90;;;;;;5024497;28;20056;-71
2022/03/15 12:36:06;;;;;;;15.57;9.77;;;11.30;99.90;;;;;;5046592;28;20033;-71
2022/03/15 12:38:41;;;;;;;22.02;12.40;;;11.40;99.90;;;;;;5046204;28;20029;-72
2022/03/15 12:41:08;;;;;;;23.38;11.98;;;11.40;99.90;;;;;;5043037;28;20033;-71